IS62 weather

John D Rennick Airport
Spring Bay, Illinois, United States

Public forecast

Using degrees Fahrenheit for public forecast. Weather courtesy of forecast.io.

Closest aviation weather report (METAR) to John D Rennick Airport

Closest report is Marshall County Airport, 9.6 nm (17.8 km) NNE. Retrieved 2019/12/11 02:35 UTC (8 minutes ago):

KC75 110235Z AUTO 29003KT 10SM SCT026 M09/M12 A3036 RMK AO2 T10871121

Closest aviation forecast (TAF) to John D Rennick Airport

Closest forecast is General Wayne A. Downing Peoria International Airport, 16.4 nm (30.3 km) SW. Retrieved 2019-12-11 00:27 UTC (2 hours ago):

TAF KPIA 102325Z 1100/1124 28008KT P6SM BKN040 FM111000 23005KT P6SM VCSH BKN040 TEMPO 1112/1116 5SM -SN FM111800 VRB04KT P6SM FEW100